Messwerte Mtwara

Temperatur

Temperatur
°C
1576202400 5.00 5.00 26
1576206000 6.00 6.00
1576209600 7.00 7.00 26
1576213200 8.00 8.00 28
1576216800 9.00 9.00
1576220400 10.00 10.00 30
1576224000 11.00 11.00 31
1576227600 12.00 12.00
1576231200 13.00 13.00 32
1576234800 14.00 14.00
1576238400 15.00 15.00 31
1576242000 16.00 16.00 32
1576245600 17.00 17.00 31
1576249200 18.00 18.00 30
1576252800 19.00 19.00 28
1576256400 20.00 20.00 28
1576260000 21.00 21.00 27
1576263600 22.00 22.00 27
1576267200 23.00 23.00
1576270800 0.00 0.00
1576274400 1.00 1.00
1576278000 2.00 2.00 27
1576281600 3.00 3.00
1576285200 4.00 4.00 26

Aktuellste Messwerte

Wettercharakter
Wetter: freundlich
Temperatur
26 °C
Feuchtigkeit
94 %
Wind
0 km/h, -
Luftdruck
1012 hPa
Messzeit: 14. Dezember 2019, 7.00Datenquelle: METAR

Weitere Messstationen in der Nähe

Messstation Temperatur Entfernung
Pemba 27 °C 304 km
Hahaya / Comoros 30 °C 365 km
Daressalam 25 °C 393 km
Sansibar 26 °C 462 km
Morogoro 22 °C 473 km

Wind

Windrichtung Böen Mittelwind
° km/h km/h
1576202400 5.00 4.00 - 5.00 0
1576206000 6.00 5.00 - 6.00
1576209600 7.00 6.00 - 7.00 0
1576213200 8.00 7.00 - 8.00 0
1576216800 9.00 8.00 - 9.00
1576220400 10.00 9.00 - 10.00 270° 20
1576224000 11.00 10.00 - 11.00 330° 20
1576227600 12.00 11.00 - 12.00
1576231200 13.00 12.00 - 13.00 330° 20
1576234800 14.00 13.00 - 14.00
1576238400 15.00 14.00 - 15.00 360° 20
1576242000 16.00 15.00 - 16.00 360° 20
1576245600 17.00 16.00 - 17.00 360° 25
1576249200 18.00 17.00 - 18.00 360° 20
1576252800 19.00 18.00 - 19.00 360° 20
1576256400 20.00 19.00 - 20.00 350° 20
1576260000 21.00 20.00 - 21.00 0
1576263600 22.00 21.00 - 22.00 0
1576267200 23.00 22.00 - 23.00
1576270800 0.00 23.00 - 0.00
1576274400 1.00 0.00 - 1.00
1576278000 2.00 1.00 - 2.00 0
1576281600 3.00 2.00 - 3.00
1576285200 4.00 3.00 - 4.00 0

Ihre Wetterstation

Fehlt Ihre Wetterstation auf unserem Portal?

Schreiben Sie an network@meteonews.ch